sensor_id;sensor_type;location;lat;lon;timestamp;pressure;altitude;pressure_sealevel;temperature;humidity
31092;BME280;17747;51.070;10.930;2022-10-26T00:00:45;101032.13;;;7.56;69.73
31092;BME280;17747;51.070;10.930;2022-10-26T00:02:16;101030.56;;;7.18;71.48
31092;BME280;17747;51.070;10.930;2022-10-26T00:03:47;101028.78;;;7.29;71.39
31092;BME280;17747;51.070;10.930;2022-10-26T00:05:20;101039.31;;;7.28;71.59
31092;BME280;17747;51.070;10.930;2022-10-26T00:06:51;101032.16;;;7.49;70.90
31092;BME280;17747;51.070;10.930;2022-10-26T00:08:23;101030.31;;;7.65;70.22
31092;BME280;17747;51.070;10.930;2022-10-26T00:09:54;101028.53;;;7.69;70.28
31092;BME280;17747;51.070;10.930;2022-10-26T00:11:25;101031.03;;;7.84;70.01
31092;BME280;17747;51.070;10.930;2022-10-26T00:12:57;101027.91;;;7.30;70.95
31092;BME280;17747;51.070;10.930;2022-10-26T00:14:27;101031.53;;;6.96;71.47
31092;BME280;17747;51.070;10.930;2022-10-26T00:15:59;101026.28;;;7.00;71.44
31092;BME280;17747;51.070;10.930;2022-10-26T00:17:30;101031.50;;;7.11;70.73
31092;BME280;17747;51.070;10.930;2022-10-26T00:19:02;101029.84;;;6.88;71.23
31092;BME280;17747;51.070;10.930;2022-10-26T00:20:34;101035.03;;;7.04;70.57
31092;BME280;17747;51.070;10.930;2022-10-26T00:22:06;101035.84;;;7.15;70.17
31092;BME280;17747;51.070;10.930;2022-10-26T00:23:37;101039.41;;;6.96;70.57
31092;BME280;17747;51.070;10.930;2022-10-26T00:25:09;101044.63;;;7.08;71.04
31092;BME280;17747;51.070;10.930;2022-10-26T00:26:46;101044.47;;;7.41;70.23
31092;BME280;17747;51.070;10.930;2022-10-26T00:28:17;101039.34;;;7.15;70.65
31092;BME280;17747;51.070;10.930;2022-10-26T00:29:48;101044.53;;;7.29;71.06
31092;BME280;17747;51.070;10.930;2022-10-26T00:31:19;101041.94;;;7.31;70.99
31092;BME280;17747;51.070;10.930;2022-10-26T00:32:51;101050.66;;;7.36;71.13
31092;BME280;17747;51.070;10.930;2022-10-26T00:34:23;101042.91;;;7.04;71.56
31092;BME280;17747;51.070;10.930;2022-10-26T00:35:56;101048.97;;;7.23;71.99
31092;BME280;17747;51.070;10.930;2022-10-26T00:37:27;101050.91;;;6.75;73.89
31092;BME280;17747;51.070;10.930;2022-10-26T00:38:58;101050.78;;;7.04;73.44
31092;BME280;17747;51.070;10.930;2022-10-26T00:40:30;101042.78;;;7.34;72.40
31092;BME280;17747;51.070;10.930;2022-10-26T00:42:01;101054.06;;;7.52;71.54
31092;BME280;17747;51.070;10.930;2022-10-26T00:43:35;101047.34;;;6.85;73.30
31092;BME280;17747;51.070;10.930;2022-10-26T00:45:14;101047.31;;;6.99;73.21
31092;BME280;17747;51.070;10.930;2022-10-26T00:46:48;101046.47;;;6.90;74.56
31092;BME280;17747;51.070;10.930;2022-10-26T00:48:21;101047.34;;;6.89;73.45
31092;BME280;17747;51.070;10.930;2022-10-26T00:49:53;101049.94;;;6.97;73.39
31092;BME280;17747;51.070;10.930;2022-10-26T00:51:28;101051.53;;;7.35;72.45
31092;BME280;17747;51.070;10.930;2022-10-26T00:53:02;101045.44;;;7.28;71.70
31092;BME280;17747;51.070;10.930;2022-10-26T00:54:36;101047.25;;;7.12;71.79
31092;BME280;17747;51.070;10.930;2022-10-26T00:56:07;101045.44;;;7.28;71.72
31092;BME280;17747;51.070;10.930;2022-10-26T00:57:39;101045.44;;;7.33;71.59
31092;BME280;17747;51.070;10.930;2022-10-26T00:59:14;101046.19;;;7.48;70.90
31092;BME280;17747;51.070;10.930;2022-10-26T01:00:46;101041.13;;;7.10;72.40
31092;BME280;17747;51.070;10.930;2022-10-26T01:02:18;101048.00;;;7.43;71.56
31092;BME280;17747;51.070;10.930;2022-10-26T01:03:49;101049.69;;;7.54;70.97
31092;BME280;17747;51.070;10.930;2022-10-26T01:05:20;101052.16;;;7.72;70.29
31092;BME280;17747;51.070;10.930;2022-10-26T01:06:53;101043.69;;;7.32;71.52
31092;BME280;17747;51.070;10.930;2022-10-26T01:08:25;101048.72;;;7.62;71.42
31092;BME280;17747;51.070;10.930;2022-10-26T01:09:58;101040.16;;;7.36;71.63
31092;BME280;17747;51.070;10.930;2022-10-26T01:11:29;101039.94;;;7.68;71.32
31092;BME280;17747;51.070;10.930;2022-10-26T01:13:01;101043.38;;;7.74;73.77
31092;BME280;17747;51.070;10.930;2022-10-26T01:14:46;101037.19;;;7.83;73.84
31092;BME280;17747;51.070;10.930;2022-10-26T01:16:24;101039.06;;;7.67;75.08
31092;BME280;17747;51.070;10.930;2022-10-26T01:18:04;101034.31;;;8.09;72.35
31092;BME280;17747;51.070;10.930;2022-10-26T01:19:46;101038.75;;;8.04;71.31
31092;BME280;17747;51.070;10.930;2022-10-26T01:21:34;101032.16;;;7.49;72.92
31092;BME280;17747;51.070;10.930;2022-10-26T01:23:12;101036.28;;;7.84;71.60
31092;BME280;17747;51.070;10.930;2022-10-26T01:26:45;101036.34;;;7.79;70.80
31092;BME280;17747;51.070;10.930;2022-10-26T01:28:24;101031.16;;;7.69;70.51
31092;BME280;17747;51.070;10.930;2022-10-26T01:31:57;101028.63;;;7.52;70.52
31092;BME280;17747;51.070;10.930;2022-10-26T01:33:33;101030.47;;;7.39;70.55
31092;BME280;17747;51.070;10.930;2022-10-26T01:35:09;101027.00;;;7.37;70.73
31092;BME280;17747;51.070;10.930;2022-10-26T01:36:43;101028.75;;;7.35;70.41
31092;BME280;17747;51.070;10.930;2022-10-26T01:38:21;101027.97;;;7.15;70.33
31092;BME280;17747;51.070;10.930;2022-10-26T01:39:57;101024.41;;;7.19;70.80
31092;BME280;17747;51.070;10.930;2022-10-26T01:41:30;101028.81;;;7.25;70.25
31092;BME280;17747;51.070;10.930;2022-10-26T01:43:05;101027.94;;;7.19;69.94
31092;BME280;17747;51.070;10.930;2022-10-26T01:44:39;101023.72;;;6.89;69.94
31092;BME280;17747;51.070;10.930;2022-10-26T01:46:12;101033.38;;;6.86;70.65
31092;BME280;17747;51.070;10.930;2022-10-26T01:47:46;101030.69;;;6.92;70.83
31092;BME280;17747;51.070;10.930;2022-10-26T01:49:19;101029.88;;;6.81;70.88
31092;BME280;17747;51.070;10.930;2022-10-26T01:50:52;101029.97;;;6.44;72.24
31092;BME280;17747;51.070;10.930;2022-10-26T01:52:23;101033.47;;;6.52;72.09
31092;BME280;17747;51.070;10.930;2022-10-26T01:53:56;101036.00;;;6.74;71.21
31092;BME280;17747;51.070;10.930;2022-10-26T01:55:44;101027.28;;;6.70;71.49
31092;BME280;17747;51.070;10.930;2022-10-26T01:57:17;101027.25;;;6.73;71.51
31092;BME280;17747;51.070;10.930;2022-10-26T01:58:55;101025.56;;;6.51;72.67
31092;BME280;17747;51.070;10.930;2022-10-26T02:00:30;101017.59;;;6.81;72.24
31092;BME280;17747;51.070;10.930;2022-10-26T02:04:03;101021.00;;;7.05;71.19
31092;BME280;17747;51.070;10.930;2022-10-26T02:07:28;101018.47;;;6.88;70.49
31092;BME280;17747;51.070;10.930;2022-10-26T02:09:05;101015.91;;;6.68;70.64
31092;BME280;17747;51.070;10.930;2022-10-26T02:10:41;101020.34;;;6.48;71.05
31092;BME280;17747;51.070;10.930;2022-10-26T02:12:18;101012.44;;;6.63;71.21
31092;BME280;17747;51.070;10.930;2022-10-26T02:13:51;101011.47;;;6.81;70.69
31092;BME280;17747;51.070;10.930;2022-10-26T02:17:16;101013.25;;;6.71;70.51
31092;BME280;17747;51.070;10.930;2022-10-26T02:18:52;101013.28;;;6.70;70.91
31092;BME280;17747;51.070;10.930;2022-10-26T02:20:27;101010.69;;;6.63;70.92
31092;BME280;17747;51.070;10.930;2022-10-26T02:22:03;101010.78;;;6.30;71.84
31092;BME280;17747;51.070;10.930;2022-10-26T02:23:36;101009.84;;;6.48;71.71
31092;BME280;17747;51.070;10.930;2022-10-26T02:25:10;101018.66;;;6.22;72.27
31092;BME280;17747;51.070;10.930;2022-10-26T02:26:42;101015.19;;;6.19;72.55
31092;BME280;17747;51.070;10.930;2022-10-26T02:28:16;101015.16;;;6.32;72.31
31092;BME280;17747;51.070;10.930;2022-10-26T02:29:47;101016.00;;;6.42;71.72
31092;BME280;17747;51.070;10.930;2022-10-26T02:31:22;101008.09;;;6.56;71.13
31092;BME280;17747;51.070;10.930;2022-10-26T02:32:55;101023.06;;;6.07;71.71
31092;BME280;17747;51.070;10.930;2022-10-26T02:34:41;101020.41;;;5.58;72.91
31092;BME280;17747;51.070;10.930;2022-10-26T02:36:16;101016.94;;;5.69;73.08
31092;BME280;17747;51.070;10.930;2022-10-26T02:37:49;101008.19;;;5.83;72.45
31092;BME280;17747;51.070;10.930;2022-10-26T02:39:21;101005.56;;;6.12;72.38
31092;BME280;17747;51.070;10.930;2022-10-26T02:40:54;101014.28;;;6.21;71.50
31092;BME280;17747;51.070;10.930;2022-10-26T02:42:27;100998.53;;;6.30;70.99
31092;BME280;17747;51.070;10.930;2022-10-26T02:43:59;101005.56;;;5.98;71.38
31092;BME280;17747;51.070;10.930;2022-10-26T02:45:33;101005.56;;;5.43;72.27
31092;BME280;17747;51.070;10.930;2022-10-26T02:47:08;101007.34;;;5.62;72.39
31092;BME280;17747;51.070;10.930;2022-10-26T02:48:41;101008.19;;;5.52;72.53
31092;BME280;17747;51.070;10.930;2022-10-26T02:50:13;101004.72;;;5.65;72.69
31092;BME280;17747;51.070;10.930;2022-10-26T02:51:48;101006.47;;;5.88;72.11
31092;BME280;17747;51.070;10.930;2022-10-26T02:53:22;101003.81;;;5.98;71.66
31092;BME280;17747;51.070;10.930;2022-10-26T02:54:55;101013.41;;;6.04;71.78
31092;BME280;17747;51.070;10.930;2022-10-26T02:56:30;101008.16;;;6.16;71.29
31092;BME280;17747;51.070;10.930;2022-10-26T02:58:05;101006.47;;;5.65;71.91
31092;BME280;17747;51.070;10.930;2022-10-26T02:59:39;101011.63;;;5.33;73.18
31092;BME280;17747;51.070;10.930;2022-10-26T03:01:11;101013.44;;;5.64;72.79
31092;BME280;17747;51.070;10.930;2022-10-26T03:02:44;101012.56;;;5.94;71.97
31092;BME280;17747;51.070;10.930;2022-10-26T03:04:15;101009.06;;;6.06;71.53
31092;BME280;17747;51.070;10.930;2022-10-26T03:05:46;101009.06;;;6.01;71.67
31092;BME280;17747;51.070;10.930;2022-10-26T03:07:23;101016.06;;;5.98;72.13
31092;BME280;17747;51.070;10.930;2022-10-26T03:08:54;101013.44;;;6.01;71.70
31092;BME280;17747;51.070;10.930;2022-10-26T03:10:25;101016.03;;;6.19;71.64
31092;BME280;17747;51.070;10.930;2022-10-26T03:11:57;101013.44;;;6.07;70.92
31092;BME280;17747;51.070;10.930;2022-10-26T03:13:28;101009.91;;;6.29;70.55
31092;BME280;17747;51.070;10.930;2022-10-26T03:15:00;101017.75;;;6.39;70.73
31092;BME280;17747;51.070;10.930;2022-10-26T03:16:31;101016.88;;;6.27;69.90
31092;BME280;17747;51.070;10.930;2022-10-26T03:18:05;101022.16;;;5.60;70.94
31092;BME280;17747;51.070;10.930;2022-10-26T03:19:37;101016.94;;;5.75;70.80
31092;BME280;17747;51.070;10.930;2022-10-26T03:21:07;101020.44;;;5.73;71.05
31092;BME280;17747;51.070;10.930;2022-10-26T03:22:40;101016.03;;;5.72;70.66
31092;BME280;17747;51.070;10.930;2022-10-26T03:24:11;101023.91;;;5.70;70.62
31092;BME280;17747;51.070;10.930;2022-10-26T03:25:42;101023.03;;;5.59;71.38
31092;BME280;17747;51.070;10.930;2022-10-26T03:27:14;101023.03;;;5.93;70.46
31092;BME280;17747;51.070;10.930;2022-10-26T03:28:44;101016.91;;;5.45;71.29
31092;BME280;17747;51.070;10.930;2022-10-26T03:30:16;101015.13;;;5.33;72.05
31092;BME280;17747;51.070;10.930;2022-10-26T03:31:47;101018.59;;;5.28;73.07
31092;BME280;17747;51.070;10.930;2022-10-26T03:33:26;101015.94;;;5.14;73.11
31092;BME280;17747;51.070;10.930;2022-10-26T03:34:57;101017.75;;;5.36;72.83
31092;BME280;17747;51.070;10.930;2022-10-26T03:36:29;101021.28;;;5.69;71.60
31092;BME280;17747;51.070;10.930;2022-10-26T03:38:03;101012.56;;;5.78;71.00
31092;BME280;17747;51.070;10.930;2022-10-26T03:39:34;101014.28;;;5.34;72.20
31092;BME280;17747;51.070;10.930;2022-10-26T03:41:06;101012.56;;;5.65;71.84
31092;BME280;17747;51.070;10.930;2022-10-26T03:42:37;101016.94;;;5.50;72.63
31092;BME280;17747;51.070;10.930;2022-10-26T03:44:09;101015.19;;;5.74;72.58
31092;BME280;17747;51.070;10.930;2022-10-26T03:45:41;101016.06;;;5.80;71.52
31092;BME280;17747;51.070;10.930;2022-10-26T03:47:15;101016.91;;;5.48;71.74
31092;BME280;17747;51.070;10.930;2022-10-26T03:48:46;101011.59;;;5.24;72.18
31092;BME280;17747;51.070;10.930;2022-10-26T03:50:17;101014.06;;;4.79;73.13
31092;BME280;17747;51.070;10.930;2022-10-26T03:51:49;101015.81;;;4.77;73.63
31092;BME280;17747;51.070;10.930;2022-10-26T03:53:22;101020.28;;;5.04;73.31
31092;BME280;17747;51.070;10.930;2022-10-26T03:54:53;101025.50;;;4.98;73.63
31092;BME280;17747;51.070;10.930;2022-10-26T03:56:25;101023.84;;;5.31;73.14
31092;BME280;17747;51.070;10.930;2022-10-26T03:57:56;101022.19;;;5.80;71.93
31092;BME280;17747;51.070;10.930;2022-10-26T03:59:28;101021.31;;;5.99;71.42
31092;BME280;17747;51.070;10.930;2022-10-26T04:00:59;101019.56;;;5.74;70.87
31092;BME280;17747;51.070;10.930;2022-10-26T04:02:31;101024.78;;;5.50;71.68
31092;BME280;17747;51.070;10.930;2022-10-26T04:04:02;101023.91;;;5.70;71.82
31092;BME280;17747;51.070;10.930;2022-10-26T04:05:39;101026.53;;;5.52;72.21
31092;BME280;17747;51.070;10.930;2022-10-26T04:07:09;101019.41;;;5.08;73.80
31092;BME280;17747;51.070;10.930;2022-10-26T04:08:42;101030.88;;;5.47;73.25
31092;BME280;17747;51.070;10.930;2022-10-26T04:10:14;101027.38;;;5.48;72.81
31092;BME280;17747;51.070;10.930;2022-10-26T04:11:45;101026.53;;;5.51;73.48
31092;BME280;17747;51.070;10.930;2022-10-26T04:13:16;101035.31;;;5.85;72.29
31092;BME280;17747;51.070;10.930;2022-10-26T04:14:48;101033.56;;;5.85;72.23
31092;BME280;17747;51.070;10.930;2022-10-26T04:16:18;101031.72;;;5.37;72.91
31092;BME280;17747;51.070;10.930;2022-10-26T04:17:54;101031.59;;;5.00;73.81
31092;BME280;17747;51.070;10.930;2022-10-26T04:19:26;101030.88;;;5.49;73.73
31092;BME280;17747;51.070;10.930;2022-10-26T04:21:01;101036.19;;;5.73;72.89
31092;BME280;17747;51.070;10.930;2022-10-26T04:22:33;101035.28;;;5.56;72.80
31092;BME280;17747;51.070;10.930;2022-10-26T04:24:08;101033.44;;;5.29;73.99
31092;BME280;17747;51.070;10.930;2022-10-26T04:25:40;101035.28;;;5.66;73.75
31092;BME280;17747;51.070;10.930;2022-10-26T04:27:11;101037.94;;;5.95;73.01
31092;BME280;17747;51.070;10.930;2022-10-26T04:28:42;101037.91;;;6.12;71.64
31092;BME280;17747;51.070;10.930;2022-10-26T04:30:13;101041.41;;;5.62;72.93
31092;BME280;17747;51.070;10.930;2022-10-26T04:31:45;101037.03;;;5.90;72.77
31092;BME280;17747;51.070;10.930;2022-10-26T04:33:16;101033.56;;;6.07;72.32
31092;BME280;17747;51.070;10.930;2022-10-26T04:34:48;101044.03;;;5.85;73.29
31092;BME280;17747;51.070;10.930;2022-10-26T04:36:18;101048.38;;;6.15;72.52
31092;BME280;17747;51.070;10.930;2022-10-26T04:37:50;101044.91;;;6.13;72.41
31092;BME280;17747;51.070;10.930;2022-10-26T04:39:22;101040.50;;;6.26;71.80
31092;BME280;17747;51.070;10.930;2022-10-26T04:40:54;101041.41;;;6.14;72.30
31092;BME280;17747;51.070;10.930;2022-10-26T04:42:26;101041.34;;;6.39;71.72
31092;BME280;17747;51.070;10.930;2022-10-26T04:43:57;101032.59;;;6.49;71.26
31092;BME280;17747;51.070;10.930;2022-10-26T04:45:29;101040.56;;;6.06;72.30
31092;BME280;17747;51.070;10.930;2022-10-26T04:47:01;101033.53;;;6.00;72.05
31092;BME280;17747;51.070;10.930;2022-10-26T04:48:32;101035.28;;;5.89;73.73
31092;BME280;17747;51.070;10.930;2022-10-26T04:50:12;101036.16;;;6.14;72.59
31092;BME280;17747;51.070;10.930;2022-10-26T04:51:51;101038.78;;;5.52;74.13
31092;BME280;17747;51.070;10.930;2022-10-26T04:53:23;101041.38;;;5.71;75.03
31092;BME280;17747;51.070;10.930;2022-10-26T04:54:56;101042.28;;;6.19;73.12
31092;BME280;17747;51.070;10.930;2022-10-26T04:56:26;101037.03;;;5.73;74.31
31092;BME280;17747;51.070;10.930;2022-10-26T04:57:58;101037.88;;;5.54;75.11
31092;BME280;17747;51.070;10.930;2022-10-26T04:59:29;101036.00;;;5.13;76.57
31092;BME280;17747;51.070;10.930;2022-10-26T05:01:01;101030.91;;;5.65;75.34
31092;BME280;17747;51.070;10.930;2022-10-26T05:02:32;101029.19;;;5.73;74.88
31092;BME280;17747;51.070;10.930;2022-10-26T05:04:04;101028.28;;;6.16;73.26
31092;BME280;17747;51.070;10.930;2022-10-26T05:05:35;101027.38;;;6.43;72.30
31092;BME280;17747;51.070;10.930;2022-10-26T05:07:07;101025.59;;;6.46;71.75
31092;BME280;17747;51.070;10.930;2022-10-26T05:08:38;101032.66;;;6.18;71.40
31092;BME280;17747;51.070;10.930;2022-10-26T05:10:11;101030.03;;;5.92;71.37
31092;BME280;17747;51.070;10.930;2022-10-26T05:11:43;101030.06;;;5.88;71.50
31092;BME280;17747;51.070;10.930;2022-10-26T05:13:15;101035.31;;;5.72;71.65
31092;BME280;17747;51.070;10.930;2022-10-26T05:14:46;101033.53;;;5.82;72.65
31092;BME280;17747;51.070;10.930;2022-10-26T05:16:17;101032.66;;;5.94;72.23
31092;BME280;17747;51.070;10.930;2022-10-26T05:17:53;101027.41;;;5.66;72.19
31092;BME280;17747;51.070;10.930;2022-10-26T05:19:25;101030.94;;;5.97;71.99
31092;BME280;17747;51.070;10.930;2022-10-26T05:20:59;101031.78;;;6.19;71.45
31092;BME280;17747;51.070;10.930;2022-10-26T05:22:36;101035.25;;;6.17;71.40
31092;BME280;17747;51.070;10.930;2022-10-26T05:24:08;101030.94;;;5.87;70.91
31092;BME280;17747;51.070;10.930;2022-10-26T05:25:41;101027.44;;;5.74;71.27
31092;BME280;17747;51.070;10.930;2022-10-26T05:27:12;101031.78;;;5.55;71.16
31092;BME280;17747;51.070;10.930;2022-10-26T05:28:44;101037.88;;;5.57;71.53
31092;BME280;17747;51.070;10.930;2022-10-26T05:30:15;101032.63;;;5.42;71.54
31092;BME280;17747;51.070;10.930;2022-10-26T05:31:48;101031.78;;;5.55;71.89
31092;BME280;17747;51.070;10.930;2022-10-26T05:33:20;101031.75;;;5.60;71.95
31092;BME280;17747;51.070;10.930;2022-10-26T05:34:51;101027.44;;;5.77;71.75
31092;BME280;17747;51.070;10.930;2022-10-26T05:36:23;101033.56;;;5.87;71.27
31092;BME280;17747;51.070;10.930;2022-10-26T05:37:54;101035.28;;;5.82;71.11
31092;BME280;17747;51.070;10.930;2022-10-26T05:39:26;101035.31;;;5.97;70.77
31092;BME280;17747;51.070;10.930;2022-10-26T05:40:59;101034.44;;;5.98;70.65
31092;BME280;17747;51.070;10.930;2022-10-26T05:42:31;101038.78;;;6.19;70.36
31092;BME280;17747;51.070;10.930;2022-10-26T05:44:02;101037.03;;;6.12;69.77
31092;BME280;17747;51.070;10.930;2022-10-26T05:45:34;101037.91;;;6.12;70.26
31092;BME280;17747;51.070;10.930;2022-10-26T05:47:07;101041.41;;;6.19;69.99
31092;BME280;17747;51.070;10.930;2022-10-26T05:48:39;101037.91;;;6.21;69.97
31092;BME280;17747;51.070;10.930;2022-10-26T05:50:11;101044.91;;;6.10;69.93
31092;BME280;17747;51.070;10.930;2022-10-26T05:51:43;101038.78;;;6.03;69.88
31092;BME280;17747;51.070;10.930;2022-10-26T05:53:14;101046.66;;;5.74;70.23
31092;BME280;17747;51.070;10.930;2022-10-26T05:54:46;101048.28;;;5.30;71.00
31092;BME280;17747;51.070;10.930;2022-10-26T05:56:20;101046.53;;;5.20;71.96
31092;BME280;17747;51.070;10.930;2022-10-26T05:57:55;101048.31;;;5.36;71.80
31092;BME280;17747;51.070;10.930;2022-10-26T05:59:26;101046.59;;;5.44;71.29
31092;BME280;17747;51.070;10.930;2022-10-26T06:01:02;101051.88;;;5.50;70.96
31092;BME280;17747;51.070;10.930;2022-10-26T06:02:39;101058.00;;;5.66;70.84
31092;BME280;17747;51.070;10.930;2022-10-26T06:04:20;101050.13;;;5.58;71.02
31092;BME280;17747;51.070;10.930;2022-10-26T06:05:54;101055.38;;;5.64;71.25
31092;BME280;17747;51.070;10.930;2022-10-26T06:07:29;101048.38;;;5.65;70.91
31092;BME280;17747;51.070;10.930;2022-10-26T06:09:02;101064.13;;;5.66;70.96
31092;BME280;17747;51.070;10.930;2022-10-26T06:10:34;101055.38;;;5.67;70.76
31092;BME280;17747;51.070;10.930;2022-10-26T06:12:08;101060.63;;;5.63;70.60
31092;BME280;17747;51.070;10.930;2022-10-26T06:13:39;101054.38;;;5.21;71.92
31092;BME280;17747;51.070;10.930;2022-10-26T06:15:31;101058.56;;;4.81;72.75
31092;BME280;17747;51.070;10.930;2022-10-26T06:17:16;101059.53;;;4.95;72.28
31092;BME280;17747;51.070;10.930;2022-10-26T06:18:54;101049.97;;;5.14;72.05
31092;BME280;17747;51.070;10.930;2022-10-26T06:20:34;101054.25;;;4.89;73.06
31092;BME280;17747;51.070;10.930;2022-10-26T06:22:11;101051.75;;;5.23;72.45
31092;BME280;17747;51.070;10.930;2022-10-26T06:23:49;101058.78;;;5.31;71.97
31092;BME280;17747;51.070;10.930;2022-10-26T06:27:18;101060.53;;;5.31;72.04
31092;BME280;17747;51.070;10.930;2022-10-26T06:28:56;101063.94;;;5.11;72.33
31092;BME280;17747;51.070;10.930;2022-10-26T06:30:42;101066.66;;;5.34;72.30
31092;BME280;17747;51.070;10.930;2022-10-26T06:32:22;101058.88;;;5.71;71.31
31092;BME280;17747;51.070;10.930;2022-10-26T06:34:09;101060.53;;;5.34;72.05
31092;BME280;17747;51.070;10.930;2022-10-26T06:35:46;101059.72;;;5.39;72.20
31092;BME280;17747;51.070;10.930;2022-10-26T06:37:20;101058.84;;;5.42;71.93
31092;BME280;17747;51.070;10.930;2022-10-26T06:38:53;101057.13;;;5.53;71.59
31092;BME280;17747;51.070;10.930;2022-10-26T06:40:27;101055.38;;;5.55;71.30
31092;BME280;17747;51.070;10.930;2022-10-26T06:42:06;101062.38;;;5.65;71.26
31092;BME280;17747;51.070;10.930;2022-10-26T06:43:40;101063.25;;;5.64;70.92
31092;BME280;17747;51.070;10.930;2022-10-26T06:45:12;101065.00;;;5.82;70.97
31092;BME280;17747;51.070;10.930;2022-10-26T06:46:45;101067.63;;;5.74;70.50
31092;BME280;17747;51.070;10.930;2022-10-26T06:48:19;101069.31;;;5.48;72.08
31092;BME280;17747;51.070;10.930;2022-10-26T06:49:55;101071.97;;;5.63;71.45
31092;BME280;17747;51.070;10.930;2022-10-26T06:51:32;101075.47;;;5.67;71.29
31092;BME280;17747;51.070;10.930;2022-10-26T06:53:13;101072.00;;;5.80;71.34
31092;BME280;17747;51.070;10.930;2022-10-26T06:54:48;101070.22;;;5.68;71.28
31092;BME280;17747;51.070;10.930;2022-10-26T06:56:21;101079.84;;;5.63;71.99
31092;BME280;17747;51.070;10.930;2022-10-26T06:57:57;101076.31;;;5.55;72.02
31092;BME280;17747;51.070;10.930;2022-10-26T06:59:43;101084.22;;;5.73;72.34
31092;BME280;17747;51.070;10.930;2022-10-26T07:01:15;101081.63;;;5.96;71.70
31092;BME280;17747;51.070;10.930;2022-10-26T07:02:48;101074.63;;;6.12;70.79
31092;BME280;17747;51.070;10.930;2022-10-26T07:04:34;101083.38;;;6.08;70.94
31092;BME280;17747;51.070;10.930;2022-10-26T07:06:07;101077.25;;;5.98;70.71
31092;BME280;17747;51.070;10.930;2022-10-26T07:07:39;101080.75;;;5.85;70.73
31092;BME280;17747;51.070;10.930;2022-10-26T07:09:11;101081.59;;;5.66;72.06
31092;BME280;17747;51.070;10.930;2022-10-26T07:12:42;101087.75;;;6.23;70.95
31092;BME280;17747;51.070;10.930;2022-10-26T07:14:16;101090.38;;;6.18;70.54
31092;BME280;17747;51.070;10.930;2022-10-26T07:15:49;101086.84;;;5.64;71.61
31092;BME280;17747;51.070;10.930;2022-10-26T07:17:20;101083.97;;;4.96;74.71
31092;BME280;17747;51.070;10.930;2022-10-26T07:18:52;101093.78;;;5.56;73.91
31092;BME280;17747;51.070;10.930;2022-10-26T07:20:23;101095.56;;;5.69;72.93
31092;BME280;17747;51.070;10.930;2022-10-26T07:21:54;101098.25;;;5.97;72.32
31092;BME280;17747;51.070;10.930;2022-10-26T07:23:28;101098.06;;;5.33;74.11
31092;BME280;17747;51.070;10.930;2022-10-26T07:25:01;101098.19;;;5.63;73.48
31092;BME280;17747;51.070;10.930;2022-10-26T07:26:41;101092.13;;;5.98;72.82
31092;BME280;17747;51.070;10.930;2022-10-26T07:28:12;101081.59;;;5.64;73.82
31092;BME280;17747;51.070;10.930;2022-10-26T07:29:44;101095.56;;;5.69;73.88
31092;BME280;17747;51.070;10.930;2022-10-26T07:31:16;101091.22;;;6.02;73.18
31092;BME280;17747;51.070;10.930;2022-10-26T07:32:48;101084.16;;;5.43;74.23
31092;BME280;17747;51.070;10.930;2022-10-26T07:34:19;101087.63;;;5.36;74.93
31092;BME280;17747;51.070;10.930;2022-10-26T07:35:51;101098.19;;;5.66;74.56
31092;BME280;17747;51.070;10.930;2022-10-26T07:37:23;101095.59;;;6.00;72.90
31092;BME280;17747;51.070;10.930;2022-10-26T07:38:54;101090.34;;;5.79;74.36
31092;BME280;17747;51.070;10.930;2022-10-26T07:40:26;101084.16;;;5.46;75.37
31092;BME280;17747;51.070;10.930;2022-10-26T07:41:58;101092.97;;;5.82;74.20
31092;BME280;17747;51.070;10.930;2022-10-26T07:43:29;101083.38;;;6.02;73.92
31092;BME280;17747;51.070;10.930;2022-10-26T07:45:01;101085.09;;;6.40;72.83
31092;BME280;17747;51.070;10.930;2022-10-26T07:46:34;101085.06;;;6.49;72.13
31092;BME280;17747;51.070;10.930;2022-10-26T07:48:07;101091.22;;;6.39;72.51
31092;BME280;17747;51.070;10.930;2022-10-26T07:49:39;101094.66;;;6.71;71.94
31092;BME280;17747;51.070;10.930;2022-10-26T07:51:10;101093.81;;;6.66;72.04
31092;BME280;17747;51.070;10.930;2022-10-26T07:52:41;101093.88;;;6.11;73.39
31092;BME280;17747;51.070;10.930;2022-10-26T07:54:13;101091.22;;;6.37;73.53
31092;BME280;17747;51.070;10.930;2022-10-26T07:55:51;101092.94;;;5.69;76.02
31092;BME280;17747;51.070;10.930;2022-10-26T07:57:39;101088.59;;;5.81;77.00
31092;BME280;17747;51.070;10.930;2022-10-26T07:59:11;101100.00;;;6.07;76.29
31092;BME280;17747;51.070;10.930;2022-10-26T08:00:42;101099.94;;;5.81;76.91
31092;BME280;17747;51.070;10.930;2022-10-26T08:02:15;101090.31;;;5.66;77.60
31092;BME280;17747;51.070;10.930;2022-10-26T08:03:46;101094.69;;;5.63;78.18
31092;BME280;17747;51.070;10.930;2022-10-26T08:05:18;101094.72;;;5.77;77.95
31092;BME280;17747;51.070;10.930;2022-10-26T08:06:49;101091.19;;;5.65;78.27
31092;BME280;17747;51.070;10.930;2022-10-26T08:08:21;101095.59;;;5.74;78.27
31092;BME280;17747;51.070;10.930;2022-10-26T08:10:06;101094.72;;;5.93;78.16
31092;BME280;17747;51.070;10.930;2022-10-26T08:12:40;101094.75;;;6.19;76.93
31092;BME280;17747;51.070;10.930;2022-10-26T08:14:10;101101.75;;;6.08;77.68
31092;BME280;17747;51.070;10.930;2022-10-26T08:15:41;101100.84;;;6.24;77.94
31092;BME280;17747;51.070;10.930;2022-10-26T08:17:13;101102.59;;;6.24;77.69
31092;BME280;17747;51.070;10.930;2022-10-26T08:18:47;101096.38;;;6.83;76.13
31092;BME280;17747;51.070;10.930;2022-10-26T08:20:19;101100.84;;;6.52;76.63
31092;BME280;17747;51.070;10.930;2022-10-26T08:21:50;101105.19;;;6.50;77.10
31092;BME280;17747;51.070;10.930;2022-10-26T08:23:21;101096.41;;;6.71;76.66